Time;durP1;ratioP1;P1;durP2;ratioP2;P2;SDS_P1;SDS_P2;PMS_P1;PMS_P2;Temp;Humidity;BMP_temperature;BMP_pressure;BME280_temperature;BME280_humidity;BME280_pressure;Samples;Min_cycle;Max_cycle;Signal;HPM_P1;HPM_P2
2021/08/31 00:02:38;;;;;;;3.60;1.73;;;16.30;99.90;;;;;;20490318;28;20033;-79
2021/08/31 00:12:40;;;;;;;9.45;1.90;;;16.20;99.90;;;;;;20534438;28;20044;-78
2021/08/31 00:22:41;;;;;;;10.15;1.75;;;16.30;99.90;;;;;;20545732;28;20042;-79
2021/08/31 00:32:42;;;;;;;4.55;1.70;;;16.20;99.90;;;;;;20533293;28;20036;-78
2021/08/31 00:42:43;;;;;;;4.35;1.90;;;16.20;99.90;;;;;;20426633;28;20042;-79
2021/08/31 00:52:45;;;;;;;4.45;2.03;;;16.10;99.90;;;;;;20441561;28;20058;-80
2021/08/31 01:02:46;;;;;;;7.03;2.20;;;16.00;99.90;;;;;;20448297;28;20039;-79
2021/08/31 01:12:48;;;;;;;6.57;2.17;;;15.90;99.90;;;;;;20453476;28;20048;-79
2021/08/31 01:22:49;;;;;;;5.00;1.98;;;15.80;99.90;;;;;;20480341;28;20035;-80
2021/08/31 01:32:50;;;;;;;5.63;2.50;;;15.80;99.90;;;;;;20445618;28;20419;-80
2021/08/31 01:42:51;;;;;;;10.30;2.85;;;15.70;99.90;;;;;;20458098;28;20040;-80
2021/08/31 01:52:52;;;;;;;6.18;2.20;;;15.60;99.90;;;;;;20466462;28;20074;-80
2021/08/31 02:02:53;;;;;;;5.22;2.22;;;15.50;99.90;;;;;;20471520;28;20044;-79
2021/08/31 02:12:54;;;;;;;5.55;2.03;;;15.50;99.90;;;;;;20518834;28;20052;-80
2021/08/31 02:22:55;;;;;;;4.20;1.92;;;15.50;99.90;;;;;;20461845;28;20031;-80
2021/08/31 02:33:00;;;;;;;4.35;1.67;;;15.40;99.90;;;;;;20465342;28;20145;-80
2021/08/31 02:43:01;;;;;;;6.03;2.00;;;15.30;99.90;;;;;;20497507;28;20068;-80
2021/08/31 02:53:02;;;;;;;4.75;1.90;;;15.10;99.90;;;;;;20499921;28;20055;-80
2021/08/31 03:03:04;;;;;;;6.93;2.13;;;15.00;99.90;;;;;;20497636;28;20047;-80
2021/08/31 03:13:05;;;;;;;3.75;1.65;;;15.00;99.90;;;;;;20519624;28;20799;-79
2021/08/31 03:23:06;;;;;;;6.40;1.80;;;14.90;99.90;;;;;;20502806;28;20629;-80
2021/08/31 03:33:09;;;;;;;4.88;2.25;;;14.90;99.90;;;;;;20528179;28;20385;-80
2021/08/31 03:43:10;;;;;;;5.32;1.27;;;14.80;99.90;;;;;;20493029;28;20425;-80
2021/08/31 03:53:11;;;;;;;4.38;2.00;;;14.70;99.90;;;;;;20462524;28;20044;-80
2021/08/31 04:03:12;;;;;;;8.82;2.25;;;14.70;99.90;;;;;;20502999;28;20047;-80
2021/08/31 04:13:13;;;;;;;4.88;1.95;;;14.70;99.90;;;;;;20510740;28;20052;-80
2021/08/31 04:23:15;;;;;;;4.25;2.38;;;14.70;99.90;;;;;;20434681;28;20039;-79
2021/08/31 04:33:17;;;;;;;9.25;2.45;;;14.80;99.90;;;;;;20482697;28;20047;-79
2021/08/31 04:43:18;;;;;;;6.38;2.30;;;14.80;99.90;;;;;;20465309;28;20058;-80
2021/08/31 04:53:20;;;;;;;3.63;1.83;;;14.80;99.90;;;;;;20477064;28;20047;-80
2021/08/31 05:03:21;;;;;;;9.90;2.97;;;14.80;99.90;;;;;;20460779;28;20048;-80
2021/08/31 05:13:22;;;;;;;7.00;2.22;;;14.90;99.90;;;;;;20450950;28;20058;-80
2021/08/31 05:23:23;;;;;;;4.47;2.38;;;14.80;99.90;;;;;;20472874;28;20043;-80
2021/08/31 05:33:24;;;;;;;4.68;1.35;;;14.90;99.90;;;;;;20481321;28;20491;-79
2021/08/31 05:43:26;;;;;;;5.43;1.85;;;14.90;99.90;;;;;;20558733;28;20054;-80
2021/08/31 05:53:27;;;;;;;3.22;1.45;;;14.90;99.90;;;;;;20555836;28;20049;-80
2021/08/31 06:03:28;;;;;;;5.28;1.95;;;15.10;99.90;;;;;;20555591;28;20035;-80
2021/08/31 06:13:29;;;;;;;4.10;1.55;;;15.20;99.90;;;;;;20594731;28;20518;-80
2021/08/31 06:23:31;;;;;;;3.20;1.23;;;15.30;99.90;;;;;;20531378;28;20045;-80
2021/08/31 06:33:32;;;;;;;4.65;1.88;;;15.50;99.90;;;;;;20537990;28;20051;-79
2021/08/31 06:43:33;;;;;;;5.15;1.90;;;15.60;99.90;;;;;;20579520;28;20588;-79
2021/08/31 06:53:34;;;;;;;6.53;2.08;;;15.70;99.90;;;;;;20545773;28;20048;-79
2021/08/31 07:03:35;;;;;;;6.28;1.80;;;15.80;99.90;;;;;;20537540;28;20041;-80
2021/08/31 07:13:36;;;;;;;3.33;1.33;;;16.00;99.90;;;;;;20552800;28;20065;-80
2021/08/31 07:23:37;;;;;;;5.75;1.92;;;16.20;99.90;;;;;;20566347;28;20034;-80
2021/08/31 07:33:38;;;;;;;8.75;2.72;;;16.40;99.90;;;;;;20530396;28;20043;-80
2021/08/31 07:43:41;;;;;;;9.10;1.67;;;16.60;99.90;;;;;;20509390;28;20077;-79
2021/08/31 07:53:42;;;;;;;2.30;1.15;;;16.90;99.90;;;;;;20492149;28;20059;-80
2021/08/31 08:03:43;;;;;;;4.07;1.30;;;17.00;99.90;;;;;;20480486;28;20514;-80
2021/08/31 08:13:44;;;;;;;5.25;2.13;;;17.20;99.90;;;;;;20516345;28;20054;-80
2021/08/31 08:23:46;;;;;;;5.05;1.48;;;17.50;99.90;;;;;;20485177;28;20130;-80
2021/08/31 08:33:47;;;;;;;4.00;1.88;;;17.70;99.90;;;;;;20522495;28;20046;-79
2021/08/31 08:43:48;;;;;;;8.93;1.50;;;18.00;99.90;;;;;;20522627;28;20026;-80
2021/08/31 08:53:49;;;;;;;2.80;1.20;;;18.10;99.90;;;;;;20504905;28;20047;-80
2021/08/31 09:03:54;;;;;;;5.25;2.70;;;18.10;99.90;;;;;;20514318;28;20053;-79
2021/08/31 09:14:14;;;;;;;4.07;1.38;;;18.20;99.90;;;;;;20494605;28;20042;-80
2021/08/31 09:24:15;;;;;;;4.97;1.38;;;18.20;99.90;;;;;;20492898;28;20426;-79
2021/08/31 09:34:40;;;;;;;6.00;1.40;;;18.30;99.90;;;;;;20482049;28;20050;-80
2021/08/31 09:44:41;;;;;;;4.50;1.55;;;18.30;99.90;;;;;;20518968;28;20047;-80
2021/08/31 09:54:48;;;;;;;4.53;1.20;;;18.30;99.90;;;;;;20545771;28;20040;-80
2021/08/31 10:04:51;;;;;;;5.80;1.57;;;18.70;99.90;;;;;;20570888;28;20026;-79
2021/08/31 10:14:57;;;;;;;2.55;1.08;;;18.50;99.90;;;;;;20524534;28;20050;-80
2021/08/31 10:24:59;;;;;;;8.70;1.65;;;18.40;99.90;;;;;;20567196;28;20041;-79
2021/08/31 10:35:00;;;;;;;3.15;1.30;;;18.80;99.90;;;;;;20553812;28;20053;-79
2021/08/31 10:45:04;;;;;;;3.10;1.08;;;19.00;99.90;;;;;;20498592;28;20028;-79
2021/08/31 10:55:27;;;;;;;6.72;2.35;;;19.60;99.90;;;;;;20515415;28;20048;-79
2021/08/31 11:05:30;;;;;;;4.50;1.58;;;19.90;99.90;;;;;;20518505;28;20329;-79
2021/08/31 11:15:32;;;;;;;5.82;1.98;;;19.70;99.90;;;;;;20520298;28;20035;-79
2021/08/31 11:25:43;;;;;;;2.58;1.30;;;19.80;99.90;;;;;;20445584;28;20035;-79
2021/08/31 11:35:46;;;;;;;3.78;1.30;;;19.80;99.90;;;;;;20511013;28;20042;-80
2021/08/31 11:45:48;;;;;;;5.50;2.05;;;19.80;99.90;;;;;;20499624;28;20057;-80
2021/08/31 11:56:00;;;;;;;5.97;2.40;;;19.80;99.90;;;;;;20480450;28;20036;-77
2021/08/31 12:06:10;;;;;;;3.38;1.38;;;19.70;99.90;;;;;;20490232;28;20047;-77
2021/08/31 12:16:14;;;;;;;2.58;0.82;;;19.90;99.90;;;;;;20465641;28;20047;-77
2021/08/31 12:26:36;;;;;;;2.80;1.15;;;20.20;99.90;;;;;;20464615;28;20046;-77
2021/08/31 12:36:37;;;;;;;5.15;1.13;;;19.80;99.90;;;;;;20478576;28;20876;-77
2021/08/31 12:46:40;;;;;;;3.58;1.02;;;19.70;99.90;;;;;;20476640;28;20059;-77
2021/08/31 12:57:01;;;;;;;3.97;1.40;;;19.80;99.90;;;;;;20558855;28;20048;-77
2021/08/31 13:07:14;;;;;;;3.10;0.73;;;19.90;99.90;;;;;;20541386;28;20405;-77
2021/08/31 13:17:16;;;;;;;3.25;0.80;;;19.90;99.90;;;;;;20579462;28;20058;-77
2021/08/31 13:27:17;;;;;;;4.25;0.95;;;20.00;99.90;;;;;;20551499;28;20050;-77
2021/08/31 13:37:18;;;;;;;5.50;1.17;;;20.10;99.90;;;;;;20540118;28;20053;-77
2021/08/31 13:47:19;;;;;;;2.22;0.80;;;19.70;99.90;;;;;;20551829;28;20385;-79
2021/08/31 13:57:22;;;;;;;3.67;1.20;;;19.60;99.90;;;;;;20577826;28;20053;-79
2021/08/31 14:07:23;;;;;;;3.35;1.00;;;19.60;99.90;;;;;;20532849;28;20054;-80
2021/08/31 14:17:24;;;;;;;2.47;0.82;;;19.20;99.90;;;;;;20569413;28;20033;-79
2021/08/31 14:27:25;;;;;;;2.95;1.20;;;19.20;99.90;;;;;;20573167;28;20039;-80
2021/08/31 14:37:26;;;;;;;3.58;0.95;;;18.90;99.90;;;;;;20599491;28;20180;-80
2021/08/31 14:47:28;;;;;;;3.97;0.93;;;18.50;99.90;;;;;;20579008;28;20055;-80
2021/08/31 14:57:29;;;;;;;5.43;0.98;;;18.30;99.90;;;;;;20534524;28;20470;-80
2021/08/31 15:07:30;;;;;;;4.80;1.58;;;18.40;99.90;;;;;;20572028;28;20066;-79
2021/08/31 15:17:35;;;;;;;2.20;0.80;;;18.50;99.90;;;;;;20565303;28;20047;-80
2021/08/31 15:27:36;;;;;;;2.20;0.63;;;18.50;99.90;;;;;;20563142;28;20054;-80
2021/08/31 15:37:37;;;;;;;4.82;1.25;;;18.30;99.90;;;;;;20497110;28;20760;-80
2021/08/31 15:47:39;;;;;;;5.63;0.98;;;18.10;99.90;;;;;;20566186;28;20046;-80
2021/08/31 15:57:40;;;;;;;1.75;0.52;;;18.00;99.90;;;;;;20528958;28;20051;-80
2021/08/31 16:07:41;;;;;;;1.58;0.70;;;17.80;99.90;;;;;;20553360;28;20051;-80
2021/08/31 16:17:47;;;;;;;2.72;0.80;;;17.70;99.90;;;;;;20547524;28;20045;-80
2021/08/31 16:27:48;;;;;;;3.10;0.70;;;17.60;99.90;;;;;;20555234;28;20047;-80
2021/08/31 16:37:49;;;;;;;5.10;1.27;;;17.50;99.90;;;;;;20549312;28;20569;-80
2021/08/31 16:47:50;;;;;;;4.32;1.45;;;17.40;99.90;;;;;;20512806;28;20042;-80
2021/08/31 16:57:51;;;;;;;5.70;1.42;;;17.40;99.90;;;;;;20562871;28;20485;-80
2021/08/31 17:07:53;;;;;;;11.63;2.60;;;17.40;99.90;;;;;;20545725;28;20043;-80
2021/08/31 17:17:54;;;;;;;12.80;1.63;;;17.30;99.90;;;;;;20514655;28;20040;-80
2021/08/31 17:27:55;;;;;;;4.43;1.17;;;17.30;99.90;;;;;;20485072;28;20062;-80
2021/08/31 17:37:56;;;;;;;3.58;1.02;;;17.10;99.90;;;;;;20548920;28;20042;-80
2021/08/31 17:47:57;;;;;;;2.60;1.33;;;17.20;99.90;;;;;;20458506;28;20054;-80
2021/08/31 17:57:59;;;;;;;8.40;1.50;;;16.90;99.90;;;;;;20483822;28;20066;-80
2021/08/31 18:08:00;;;;;;;18.83;1.58;;;16.90;99.90;;;;;;20510756;28;20047;-80
2021/08/31 18:18:01;;;;;;;6.90;0.85;;;16.90;99.90;;;;;;20527358;28;20046;-80
2021/08/31 18:28:02;;;;;;;2.67;0.70;;;16.80;99.90;;;;;;20488933;28;20062;-80
2021/08/31 18:38:03;;;;;;;6.30;1.00;;;16.90;99.90;;;;;;20543396;28;20037;-80
2021/08/31 18:48:04;;;;;;;3.47;0.63;;;16.80;99.90;;;;;;20546616;28;20042;-80
2021/08/31 18:58:05;;;;;;;2.92;1.15;;;16.70;99.90;;;;;;20508051;28;20038;-80
2021/08/31 19:08:07;;;;;;;6.00;1.00;;;16.70;99.90;;;;;;20510757;28;20054;-79
2021/08/31 19:18:08;;;;;;;4.70;1.05;;;16.60;99.90;;;;;;20537353;28;20046;-80
2021/08/31 19:28:09;;;;;;;2.55;0.55;;;16.60;99.90;;;;;;20503380;28;20077;-80
2021/08/31 19:38:10;;;;;;;7.28;1.35;;;16.60;99.90;;;;;;20500746;28;20056;-80
2021/08/31 19:48:12;;;;;;;1.98;0.90;;;16.60;99.90;;;;;;20515146;28;20048;-80
2021/08/31 19:58:13;;;;;;;3.38;0.95;;;16.50;99.90;;;;;;20531937;28;20401;-80
2021/08/31 20:08:14;;;;;;;1.75;0.70;;;16.60;99.90;;;;;;20577210;28;20057;-80
2021/08/31 20:18:15;;;;;;;3.78;1.30;;;16.50;99.90;;;;;;20553817;28;20420;-80
2021/08/31 20:28:17;;;;;;;1.38;0.52;;;16.50;99.90;;;;;;20512710;28;20054;-80
2021/08/31 20:38:18;;;;;;;1.38;0.70;;;16.50;99.90;;;;;;20511239;28;20525;-80
2021/08/31 20:48:19;;;;;;;4.88;0.60;;;16.50;99.90;;;;;;20499840;28;20052;-80
2021/08/31 20:58:22;;;;;;;3.33;0.80;;;16.40;99.90;;;;;;20523639;28;20041;-80
2021/08/31 21:08:23;;;;;;;9.93;0.85;;;16.50;99.90;;;;;;20516484;28;20058;-79
2021/08/31 21:18:24;;;;;;;5.63;0.77;;;16.50;99.90;;;;;;20510881;28;20490;-80
2021/08/31 21:28:25;;;;;;;3.85;0.60;;;16.50;99.90;;;;;;20500973;28;20039;-80
2021/08/31 21:38:26;;;;;;;4.88;0.90;;;16.50;99.90;;;;;;20499200;28;20058;-80
2021/08/31 21:48:27;;;;;;;4.95;0.75;;;16.50;99.90;;;;;;20482625;28;21943;-80
2021/08/31 21:58:28;;;;;;;2.45;0.85;;;16.40;99.90;;;;;;20512998;28;20051;-80
2021/08/31 22:08:29;;;;;;;1.92;0.80;;;16.50;99.90;;;;;;20536496;28;20046;-80
2021/08/31 22:18:30;;;;;;;2.42;0.75;;;16.40;99.90;;;;;;20567720;28;20043;-80
2021/08/31 22:28:32;;;;;;;9.95;1.67;;;16.50;99.90;;;;;;20555066;28;20757;-79
2021/08/31 22:38:34;;;;;;;5.65;1.05;;;16.50;99.90;;;;;;20616768;28;20055;-79
2021/08/31 22:48:35;;;;;;;3.75;0.95;;;16.40;99.90;;;;;;20533106;28;20047;-79
2021/08/31 22:58:36;;;;;;;5.13;1.55;;;16.40;99.90;;;;;;20550484;28;20034;-80
2021/08/31 23:08:37;;;;;;;3.72;1.05;;;16.40;99.90;;;;;;20520546;28;20051;-80
2021/08/31 23:18:38;;;;;;;3.03;0.47;;;16.40;99.90;;;;;;20525376;28;20048;-80
2021/08/31 23:28:41;;;;;;;3.22;1.00;;;16.40;99.90;;;;;;20502054;28;20054;-80
2021/08/31 23:38:43;;;;;;;7.25;1.05;;;16.30;99.90;;;;;;20560382;28;21341;-80
2021/08/31 23:48:44;;;;;;;3.22;0.65;;;16.30;99.90;;;;;;20552166;28;20510;-80
2021/08/31 23:58:46;;;;;;;5.00;1.30;;;16.20;99.90;;;;;;20498201;28;20053;-80
